Time;durP1;ratioP1;P1;durP2;ratioP2;P2;SDS_P1;SDS_P2;PMS_P1;PMS_P2;Temp;Humidity;BMP_temperature;BMP_pressure;BME280_temperature;BME280_humidity;BME280_pressure;Samples;Min_cycle;Max_cycle;Signal;HPM_P1;HPM_P2
2023/07/15 00:00:23;;;;;;;3.10;1.50;;;;;;;17.80;100.00;99560.91;4958131;29;20039;-73
2023/07/15 00:02:50;;;;;;;6.03;1.30;;;;;;;17.81;100.00;99560.53;4942179;29;20042;-73
2023/07/15 00:05:20;;;;;;;6.25;1.70;;;;;;;17.81;100.00;99551.31;4927123;29;20099;-73
2023/07/15 00:07:46;;;;;;;7.45;1.50;;;;;;;17.76;100.00;99562.78;4935917;29;20032;-73
2023/07/15 00:10:11;;;;;;;6.50;1.63;;;;;;;17.74;100.00;99554.72;4945592;29;20047;-73
2023/07/15 00:12:37;;;;;;;10.05;1.75;;;;;;;17.72;100.00;99556.25;4913854;29;20032;-73
2023/07/15 00:15:03;;;;;;;6.28;1.98;;;;;;;17.69;100.00;99551.38;4911926;29;20028;-73
2023/07/15 00:17:28;;;;;;;5.60;1.60;;;;;;;17.65;100.00;99562.53;4922893;29;20043;-73
2023/07/15 00:19:54;;;;;;;7.82;1.70;;;;;;;17.65;100.00;99552.13;4935414;29;20032;-73
2023/07/15 00:22:19;;;;;;;10.50;2.10;;;;;;;17.59;100.00;99549.97;4920349;29;20400;-73
2023/07/15 00:24:46;;;;;;;7.22;1.77;;;;;;;17.60;100.00;99548.78;4922779;29;20071;-73
2023/07/15 00:27:11;;;;;;;9.27;2.05;;;;;;;17.62;100.00;99552.03;4906979;29;20485;-73
2023/07/15 00:29:37;;;;;;;5.70;1.73;;;;;;;17.61;100.00;99547.63;4938258;29;20059;-73
2023/07/15 00:32:04;;;;;;;5.75;1.65;;;;;;;17.60;100.00;99554.38;4941963;29;20032;-73
2023/07/15 00:34:30;;;;;;;6.80;2.00;;;;;;;17.60;100.00;99549.59;4914867;29;20430;-73
2023/07/15 00:36:55;;;;;;;7.35;1.92;;;;;;;17.63;100.00;99545.22;4895431;29;20042;-73
2023/07/15 00:39:21;;;;;;;8.82;1.80;;;;;;;17.61;100.00;99556.03;4938500;29;20024;-73
2023/07/15 00:41:47;;;;;;;7.28;1.90;;;;;;;17.62;100.00;99546.41;4936579;29;20102;-73
2023/07/15 00:44:15;;;;;;;8.73;2.10;;;;;;;17.65;100.00;99542.88;4938116;29;20023;-73
2023/07/15 00:46:59;;;;;;;6.57;2.15;;;;;;;17.63;100.00;99537.66;4938278;29;20040;-73
2023/07/15 00:49:30;;;;;;;6.72;2.00;;;;;;;17.65;100.00;99532.47;4932704;29;20404;-73
2023/07/15 00:52:00;;;;;;;9.35;2.22;;;;;;;17.67;100.00;99532.09;4923284;29;20035;-73
2023/07/15 00:54:25;;;;;;;16.00;2.25;;;;;;;17.69;100.00;99532.56;4942102;29;20159;-73
2023/07/15 00:56:51;;;;;;;6.43;1.67;;;;;;;17.71;100.00;99527.38;4922708;29;20052;-74
2023/07/15 00:59:16;;;;;;;5.95;1.92;;;;;;;17.70;100.00;99530.56;4917051;29;20493;-73
2023/07/15 01:01:45;;;;;;;8.35;1.85;;;;;;;17.68;100.00;99530.09;4924748;29;20024;-73
2023/07/15 01:04:10;;;;;;;11.00;2.30;;;;;;;17.65;100.00;99526.84;4902995;29;20051;-74
2023/07/15 01:06:36;;;;;;;5.88;1.83;;;;;;;17.70;100.00;99520.16;4944438;29;20051;-73
2023/07/15 01:09:07;;;;;;;6.90;2.10;;;;;;;17.73;100.00;99532.63;4929134;29;20029;-73
2023/07/15 01:11:33;;;;;;;11.95;2.40;;;;;;;17.71;100.00;99527.38;4956068;29;20365;-73
2023/07/15 01:13:59;;;;;;;8.60;1.75;;;;;;;17.73;100.00;99538.25;4924326;29;20035;-73
2023/07/15 01:16:24;;;;;;;7.45;1.58;;;;;;;17.73;100.00;99538.25;4960643;29;20106;-74
2023/07/15 01:18:50;;;;;;;6.28;1.80;;;;;;;17.77;100.00;99531.53;4927676;29;20023;-73
2023/07/15 01:21:15;;;;;;;7.60;2.00;;;;;;;17.79;100.00;99517.16;4961887;28;20058;-74
2023/07/15 01:23:41;;;;;;;9.07;2.10;;;;;;;17.81;100.00;99523.22;4944790;29;20039;-73
2023/07/15 01:26:06;;;;;;;8.40;1.98;;;;;;;17.84;100.00;99519.69;4960682;29;20038;-74
2023/07/15 01:28:32;;;;;;;9.27;2.03;;;;;;;17.87;100.00;99516.13;4960126;29;20495;-74
2023/07/15 01:30:58;;;;;;;9.90;2.10;;;;;;;17.88;100.00;99514.13;4936339;29;20043;-74
2023/07/15 01:33:24;;;;;;;6.93;2.55;;;;;;;17.88;100.00;99516.94;4922703;29;20031;-74
2023/07/15 01:35:50;;;;;;;7.65;2.15;;;;;;;17.90;100.00;99512.59;4922035;29;20042;-73
2023/07/15 01:38:15;;;;;;;8.95;2.00;;;;;;;17.90;100.00;99511.78;4927268;29;20043;-74
2023/07/15 01:40:42;;;;;;;11.05;2.25;;;;;;;17.90;100.00;99506.97;4948024;29;20042;-74
2023/07/15 01:43:07;;;;;;;8.02;2.15;;;;;;;17.89;100.00;99507.34;4940938;29;20031;-73
2023/07/15 01:45:33;;;;;;;8.93;2.65;;;;;;;17.92;100.00;99501.81;4942923;29;20420;-74
2023/07/15 01:47:58;;;;;;;10.52;2.00;;;;;;;17.88;100.00;99500.09;4922250;29;20050;-74
2023/07/15 01:50:24;;;;;;;10.35;2.35;;;;;;;17.89;100.00;99505.34;4927265;29;20028;-73
2023/07/15 01:52:49;;;;;;;8.52;2.42;;;;;;;17.85;100.00;99504.44;4944177;29;20031;-74
2023/07/15 01:55:15;;;;;;;8.48;2.13;;;;;;;17.88;100.00;99500.09;4943260;29;20035;-73
2023/07/15 01:57:41;;;;;;;9.85;2.10;;;;;;;17.88;100.00;99502.91;4959497;29;20031;-73
2023/07/15 02:00:08;;;;;;;8.65;2.10;;;;;;;17.84;100.00;99486.78;4943473;29;20095;-73
2023/07/15 02:02:33;;;;;;;8.15;1.90;;;;;;;17.80;100.00;99483.09;4941367;29;20083;-73
2023/07/15 02:04:59;;;;;;;9.48;2.30;;;;;;;17.82;100.00;99474.28;4943622;29;20047;-73
2023/07/15 02:07:24;;;;;;;7.47;2.25;;;;;;;17.78;100.00;99479.84;4941551;29;20035;-73
2023/07/15 02:09:50;;;;;;;9.50;2.25;;;;;;;17.78;100.00;99473.38;4943757;29;20035;-74
2023/07/15 02:12:15;;;;;;;8.30;1.90;;;;;;;17.82;100.00;99468.69;4940538;29;20028;-73
2023/07/15 02:14:41;;;;;;;8.00;2.00;;;;;;;17.79;100.00;99473.03;4943532;29;20042;-74
2023/07/15 02:17:06;;;;;;;6.65;2.05;;;;;;;17.76;100.00;99478.56;4943767;29;20059;-73
2023/07/15 02:19:32;;;;;;;8.18;2.30;;;;;;;17.69;100.00;99469.94;4959787;29;20028;-73
2023/07/15 02:21:58;;;;;;;9.30;2.28;;;;;;;17.67;100.00;99478.75;4943655;29;20495;-73
2023/07/15 02:24:24;;;;;;;6.97;2.05;;;;;;;17.65;100.00;99467.88;4943669;29;20082;-73
2023/07/15 02:26:49;;;;;;;7.30;2.42;;;;;;;17.62;100.00;99468.63;4943462;29;20510;-73
2023/07/15 02:29:15;;;;;;;10.15;2.53;;;;;;;17.59;100.00;99472.16;4942862;29;20028;-73
2023/07/15 02:31:41;;;;;;;9.15;2.45;;;;;;;17.52;100.00;99463.56;4927687;29;20063;-74
2023/07/15 02:34:07;;;;;;;7.07;1.80;;;;;;;17.49;100.00;99469.91;4936108;29;20035;-73
2023/07/15 02:36:33;;;;;;;11.20;2.00;;;;;;;17.49;100.00;99463.50;4912847;29;20028;-73
2023/07/15 02:38:59;;;;;;;6.75;2.03;;;;;;;17.41;100.00;99465.31;4924518;29;20032;-73
2023/07/15 02:41:24;;;;;;;7.60;2.10;;;;;;;17.43;100.00;99465.78;4939873;29;20040;-73
2023/07/15 02:43:50;;;;;;;6.85;2.20;;;;;;;17.43;100.00;99462.97;4926831;29;20046;-74
2023/07/15 02:46:15;;;;;;;6.72;2.00;;;;;;;17.42;100.00;99458.53;4926464;29;20030;-73
2023/07/15 02:48:41;;;;;;;8.77;2.55;;;;;;;17.37;100.00;99451.22;4941190;29;20031;-73
2023/07/15 02:51:06;;;;;;;11.40;2.10;;;;;;;17.35;100.00;99450.75;4959175;29;20042;-73
2023/07/15 02:53:32;;;;;;;7.88;2.15;;;;;;;17.37;100.00;99444.78;4933104;29;20484;-73
2023/07/15 02:55:57;;;;;;;7.03;2.00;;;;;;;17.35;100.00;99442.34;4958922;29;20373;-73
2023/07/15 02:58:23;;;;;;;5.05;1.63;;;;;;;17.34;100.00;99439.91;4958495;29;20043;-73
2023/07/15 03:00:50;;;;;;;7.60;1.95;;;;;;;17.31;100.00;99438.66;4943235;29;20111;-73
2023/07/15 03:03:16;;;;;;;6.78;1.85;;;;;;;17.34;100.00;99437.09;4942142;28;20023;-73
2023/07/15 03:05:46;;;;;;;7.13;2.30;;;;;;;17.32;100.00;99439.47;4930385;28;20073;-73
2023/07/15 03:08:11;;;;;;;6.75;1.83;;;;;;;17.31;100.00;99432.22;4912718;28;20027;-73
2023/07/15 03:10:36;;;;;;;7.68;2.13;;;;;;;17.29;100.00;99424.16;4961987;28;20077;-73
2023/07/15 03:13:03;;;;;;;7.43;1.73;;;;;;;17.29;100.00;99420.53;4934203;28;20031;-73
2023/07/15 03:15:29;;;;;;;7.18;2.20;;;;;;;17.25;100.00;99419.66;4930094;29;20039;-73
2023/07/15 03:17:55;;;;;;;6.47;2.15;;;;;;;17.20;100.00;99417.94;4942752;28;20027;-73
2023/07/15 03:20:21;;;;;;;9.45;2.00;;;;;;;17.14;100.00;99414.59;4926792;29;20042;-73
2023/07/15 03:22:47;;;;;;;9.93;2.00;;;;;;;17.13;100.00;99418.59;4926947;28;20031;-73
2023/07/15 03:25:14;;;;;;;6.68;2.20;;;;;;;17.13;100.00;99415.78;4926852;29;20038;-73
2023/07/15 03:27:40;;;;;;;6.95;1.80;;;;;;;17.12;100.00;99408.53;4926704;28;20042;-73
2023/07/15 03:30:07;;;;;;;7.30;1.70;;;;;;;17.10;100.00;99413.69;4916248;29;20032;-73
2023/07/15 03:32:36;;;;;;;9.85;2.13;;;;;;;17.02;100.00;99414.72;4955247;28;20499;-73
2023/07/15 03:35:03;;;;;;;8.73;2.35;;;;;;;17.05;100.00;99410.34;4932771;28;20070;-73
2023/07/15 03:37:30;;;;;;;5.68;1.63;;;;;;;17.01;100.00;99399.06;4948785;28;20073;-73
2023/07/15 03:39:55;;;;;;;6.35;1.70;;;;;;;16.99;100.00;99393.00;4932901;28;20396;-73
2023/07/15 03:42:21;;;;;;;7.32;1.60;;;;;;;16.96;100.00;99399.34;4956851;28;20035;-74
2023/07/15 03:44:47;;;;;;;9.43;2.10;;;;;;;16.92;100.00;99390.84;4947616;28;20047;-74
2023/07/15 03:47:12;;;;;;;8.13;2.10;;;;;;;16.93;100.00;99377.63;4941426;28;20037;-73
2023/07/15 03:49:38;;;;;;;8.43;2.03;;;;;;;16.92;100.00;99390.03;4920684;29;20031;-73
2023/07/15 03:52:03;;;;;;;7.90;1.85;;;;;;;16.87;100.00;99393.13;4943607;28;20030;-73
2023/07/15 03:54:29;;;;;;;7.25;2.15;;;;;;;16.82;100.00;99394.19;4943983;28;20550;-73
2023/07/15 03:56:56;;;;;;;7.28;1.70;;;;;;;16.84;100.00;99393.84;4926117;28;20053;-73
2023/07/15 03:59:22;;;;;;;5.35;1.70;;;;;;;16.83;100.00;99392.22;4926419;29;20035;-73
2023/07/15 04:01:47;;;;;;;9.20;2.25;;;;;;;16.82;100.00;99390.59;4926200;28;20563;-73
2023/07/15 04:04:13;;;;;;;14.68;2.25;;;;;;;16.85;100.00;99392.66;4944613;28;20074;-73
2023/07/15 04:06:39;;;;;;;7.70;1.90;;;;;;;16.84;100.00;99389.03;4967094;28;20042;-73
2023/07/15 04:09:05;;;;;;;8.00;2.25;;;;;;;16.85;100.00;99395.47;4924970;29;20039;-73
2023/07/15 04:11:31;;;;;;;8.80;2.10;;;;;;;16.88;100.00;99391.91;4954069;28;20030;-74
2023/07/15 04:13:57;;;;;;;7.20;1.70;;;;;;;16.90;100.00;99395.19;4910946;28;20495;-73
2023/07/15 04:16:22;;;;;;;7.90;1.90;;;;;;;16.92;100.00;99395.66;4959029;28;20062;-73
2023/07/15 04:18:47;;;;;;;8.52;1.75;;;;;;;16.96;100.00;99391.72;4925995;28;20137;-74
2023/07/15 04:21:13;;;;;;;7.90;1.85;;;;;;;16.95;100.00;99390.13;4906117;28;20032;-73
2023/07/15 04:23:38;;;;;;;6.63;1.92;;;;;;;17.00;100.00;99397.44;4943560;28;20387;-73
2023/07/15 04:26:06;;;;;;;7.60;2.33;;;;;;;17.00;100.00;99389.03;4942894;29;20086;-73
2023/07/15 04:28:31;;;;;;;8.13;1.70;;;;;;;17.01;100.00;99393.44;4930185;28;20440;-73
2023/07/15 04:30:57;;;;;;;8.77;2.15;;;;;;;17.05;100.00;99391.56;4929786;29;20046;-73
2023/07/15 04:33:23;;;;;;;10.30;2.25;;;;;;;17.05;100.00;99383.16;4929833;28;20035;-73
2023/07/15 04:35:48;;;;;;;7.10;1.90;;;;;;;17.06;100.00;99392.38;4929840;29;20468;-73
2023/07/15 04:38:13;;;;;;;10.63;2.13;;;;;;;17.08;100.00;99388.03;4929796;28;20058;-74
2023/07/15 04:40:39;;;;;;;9.07;2.00;;;;;;;17.11;100.00;99398.50;4943097;29;20027;-73
2023/07/15 04:43:04;;;;;;;8.98;2.13;;;;;;;17.13;100.00;99390.53;4950169;28;20053;-73
2023/07/15 04:45:31;;;;;;;8.98;2.25;;;;;;;17.14;100.00;99396.97;4942930;29;20027;-74
2023/07/15 04:47:57;;;;;;;9.50;2.78;;;;;;;17.16;100.00;99383.38;4961237;28;20033;-73
2023/07/15 04:50:23;;;;;;;9.98;2.15;;;;;;;17.18;100.00;99393.03;4916235;29;20039;-73
2023/07/15 04:52:48;;;;;;;8.70;1.98;;;;;;;17.19;100.00;99393.88;4922191;29;20110;-74
2023/07/15 04:55:14;;;;;;;13.80;2.70;;;;;;;17.21;100.00;99397.13;4928302;28;20111;-74
2023/07/15 04:57:40;;;;;;;10.77;2.17;;;;;;;17.20;100.00;99379.47;4936379;29;20119;-74
2023/07/15 05:00:10;;;;;;;9.85;2.08;;;;;;;17.25;100.00;99384.00;4913759;29;20039;-73
2023/07/15 05:02:37;;;;;;;14.48;2.20;;;;;;;17.27;100.00;99389.22;4945981;29;20055;-73
2023/07/15 05:05:04;;;;;;;11.80;2.13;;;;;;;17.29;100.00;99393.28;4945077;29;20130;-74
2023/07/15 05:07:30;;;;;;;7.95;1.83;;;;;;;17.34;100.00;99397.81;4935589;28;20075;-73
2023/07/15 05:09:55;;;;;;;8.70;2.00;;;;;;;17.33;100.00;99404.63;4932651;29;20395;-73
2023/07/15 05:12:20;;;;;;;8.18;1.77;;;;;;;17.36;100.00;99395.47;4942516;28;20445;-73
2023/07/15 05:14:46;;;;;;;9.00;1.98;;;;;;;17.36;100.00;99387.03;4941894;29;20031;-73
2023/07/15 05:17:11;;;;;;;9.45;2.42;;;;;;;17.39;100.00;99392.72;4923212;28;20035;-74
2023/07/15 05:19:37;;;;;;;10.40;2.20;;;;;;;17.41;100.00;99390.38;4932503;29;20034;-74
2023/07/15 05:22:02;;;;;;;5.97;2.03;;;;;;;17.45;100.00;99390.44;4929388;28;20057;-73
2023/07/15 05:24:28;;;;;;;6.72;1.95;;;;;;;17.47;100.00;99396.50;4957209;29;20102;-73
2023/07/15 05:26:55;;;;;;;10.95;2.33;;;;;;;17.52;100.00;99404.63;4928865;28;20086;-74
2023/07/15 05:29:20;;;;;;;9.30;2.17;;;;;;;17.56;100.00;99399.91;4944661;29;20479;-74
2023/07/15 05:31:46;;;;;;;8.23;2.20;;;;;;;17.64;100.00;99387.66;4939041;28;20050;-74
2023/07/15 05:34:11;;;;;;;8.98;2.20;;;;;;;17.70;100.00;99393.78;4944486;29;20034;-74
2023/07/15 05:36:37;;;;;;;13.48;2.35;;;;;;;17.76;100.00;99400.72;4945045;28;20027;-74
2023/07/15 05:39:02;;;;;;;12.57;2.58;;;;;;;17.84;100.00;99390.50;4931801;29;20035;-74
2023/07/15 05:41:28;;;;;;;13.30;2.78;;;;;;;17.88;100.00;99391.38;4944243;28;20046;-74
2023/07/15 05:43:53;;;;;;;17.67;3.13;;;;;;;17.95;100.00;99396.34;4946696;29;20038;-74
2023/07/15 05:46:19;;;;;;;12.05;2.67;;;;;;;17.97;100.00;99389.16;4944128;28;20073;-74
2023/07/15 05:48:44;;;;;;;15.60;2.97;;;;;;;18.03;100.00;99390.47;4948251;29;20499;-74
2023/07/15 05:51:13;;;;;;;15.65;3.15;;;;;;;18.09;100.00;99391.78;4945317;28;20118;-74
2023/07/15 05:54:00;;;;;;;14.75;2.80;;;;;;;18.17;100.00;99389.94;4929349;28;20066;-74
2023/07/15 05:59:52;;;;;;;12.70;2.50;;;;;;;18.34;100.00;99385.84;4953213;28;20126;-74
2023/07/15 06:02:29;;;;;;;14.35;3.15;;;;;;;18.42;100.00;99375.53;4947272;29;20040;-74
2023/07/15 06:05:18;;;;;;;11.25;2.75;;;;;;;18.46;100.00;99380.03;4930089;29;20043;-74
2023/07/15 06:08:05;;;;;;;15.23;2.45;;;;;;;18.51;100.00;99378.91;4929662;28;20027;-74
2023/07/15 06:11:00;;;;;;;12.85;2.55;;;;;;;18.54;100.00;99375.34;4944210;29;20483;-74
2023/07/15 06:14:00;;;;;;;14.15;2.85;;;;;;;18.56;100.00;99377.78;4927363;29;20039;-74
2023/07/15 06:16:42;;;;;;;18.20;3.22;;;;;;;18.58;100.00;99378.22;4931128;29;20388;-74
2023/07/15 06:19:11;;;;;;;12.27;2.25;;;;;;;18.66;100.00;99377.94;4957957;28;20395;-74
2023/07/15 06:21:41;;;;;;;13.65;3.00;;;;;;;18.73;100.00;99377.28;4917879;29;20047;-74
2023/07/15 06:24:25;;;;;;;13.15;2.60;;;;;;;18.81;100.00;99379.03;4911428;29;20032;-74
2023/07/15 06:26:53;;;;;;;9.40;2.80;;;;;;;18.89;100.00;99369.53;4929563;29;20034;-74
2023/07/15 06:29:19;;;;;;;11.35;2.65;;;;;;;18.96;100.00;99386.50;4931219;29;20122;-74
2023/07/15 06:32:06;;;;;;;9.77;2.05;;;;;;;19.04;100.00;99375.38;4973712;28;20027;-74
2023/07/15 06:34:42;;;;;;;12.45;2.60;;;;;;;19.09;100.00;99369.44;4943400;29;20031;-74
2023/07/15 06:37:37;;;;;;;7.72;2.15;;;;;;;19.20;100.00;99371.19;4952447;28;20506;-74
2023/07/15 06:40:40;;;;;;;9.98;2.10;;;;;;;19.25;100.00;99372.06;4942363;28;20515;-74
2023/07/15 06:43:09;;;;;;;11.95;2.22;;;;;;;19.32;100.00;99372.97;4943375;28;20043;-74
2023/07/15 06:45:57;;;;;;;9.90;2.50;;;;;;;19.39;100.00;99373.09;4965068;28;20436;-74
2023/07/15 06:48:35;;;;;;;11.05;2.40;;;;;;;19.45;100.00;99386.84;4963163;28;20386;-74
2023/07/15 06:51:20;;;;;;;;;;;;;;;;;;;;;
2023/07/15 06:54:15;;;;;;;15.15;2.97;;;;;;;19.60;100.00;99388.63;4952425;28;20471;-74
2023/07/15 06:56:45;;;;;;;11.57;2.40;;;;;;;19.64;100.00;99383.88;4949483;28;20547;-75
2023/07/15 06:59:25;;;;;;;15.48;2.42;;;;;;;19.70;100.00;99378.75;4968717;28;20035;-74
2023/07/15 07:02:14;;;;;;;7.30;2.40;;;;;;;19.72;100.00;99390.41;4966731;28;20467;-75
2023/07/15 07:05:02;;;;;;;11.98;2.60;;;;;;;19.78;100.00;99386.06;4942778;29;20059;-74
2023/07/15 07:07:28;;;;;;;11.80;2.35;;;;;;;19.82;100.00;99382.09;4919844;29;20048;-74
2023/07/15 07:09:53;;;;;;;11.80;2.33;;;;;;;19.88;100.00;99373.31;4906663;29;20072;-74
2023/07/15 07:12:19;;;;;;;9.75;2.30;;;;;;;19.93;100.00;99378.63;4888080;29;20048;-74
2023/07/15 07:14:44;;;;;;;11.02;2.40;;;;;;;20.00;100.00;99379.53;4919747;29;20465;-74
2023/07/15 07:17:10;;;;;;;12.02;2.42;;;;;;;20.09;100.00;99382.03;4919358;29;20048;-74
2023/07/15 07:19:36;;;;;;;14.38;2.55;;;;;;;20.23;100.00;99382.19;4919596;29;20161;-74
2023/07/15 07:22:01;;;;;;;10.77;2.42;;;;;;;20.36;100.00;99384.72;4919665;29;20503;-74
2023/07/15 07:24:27;;;;;;;10.25;2.28;;;;;;;20.52;100.00;99386.06;4903768;29;20095;-74
2023/07/15 07:26:52;;;;;;;10.65;2.25;;;;;;;20.69;100.00;99384.66;4919283;29;20063;-74
2023/07/15 07:29:17;;;;;;;10.18;2.30;;;;;;;20.86;100.00;99391.63;4919422;29;20624;-74
2023/07/15 07:31:43;;;;;;;11.25;2.50;;;;;;;20.98;100.00;99374.41;4913194;29;20044;-74
2023/07/15 07:34:08;;;;;;;12.45;1.98;;;;;;;21.14;100.00;99385.38;4932028;29;20048;-74
2023/07/15 07:36:34;;;;;;;9.70;2.08;;;;;;;21.24;100.00;99394.34;4919465;29;20048;-74
2023/07/15 07:38:59;;;;;;;10.05;1.70;;;;;;;21.37;100.00;99378.72;4925932;29;20059;-75
2023/07/15 07:41:25;;;;;;;9.32;2.08;;;;;;;21.38;100.00;99386.78;4904136;29;20031;-74
2023/07/15 07:43:50;;;;;;;10.57;2.10;;;;;;;21.44;100.00;99380.78;4910720;29;20036;-75
2023/07/15 07:46:15;;;;;;;9.73;2.08;;;;;;;21.41;100.00;99385.19;4919975;29;20028;-75
2023/07/15 07:48:41;;;;;;;10.40;1.85;;;;;;;21.32;100.00;99373.41;4945860;29;20031;-75
2023/07/15 07:51:07;;;;;;;7.53;2.13;;;;;;;21.25;100.00;99362.06;4939152;29;20032;-75
2023/07/15 07:53:32;;;;;;;9.35;2.00;;;;;;;21.19;100.00;99384.22;4923264;29;20039;-75
2023/07/15 07:55:58;;;;;;;7.82;2.08;;;;;;;21.08;100.00;99432.13;4948099;28;20028;-76
2023/07/15 07:58:23;;;;;;;12.18;2.75;;;;;;;20.93;100.00;99419.13;4919610;29;20043;-75
2023/07/15 08:00:49;;;;;;;12.10;2.75;;;;;;;20.81;100.00;99425.03;4922889;29;20095;-75
2023/07/15 08:03:14;;;;;;;12.52;2.30;;;;;;;20.72;100.00;99431.81;4922910;29;20035;-75
2023/07/15 08:05:44;;;;;;;9.30;2.10;;;;;;;20.60;100.00;99439.78;4915178;29;20102;-75
2023/07/15 08:08:10;;;;;;;7.72;2.13;;;;;;;20.47;100.00;99434.38;4952475;29;20496;-75
2023/07/15 08:10:36;;;;;;;9.25;2.15;;;;;;;20.39;100.00;99431.88;4923056;29;20028;-75
2023/07/15 08:13:03;;;;;;;10.70;2.08;;;;;;;20.30;100.00;99444.25;4941384;29;20054;-74
2023/07/15 08:15:29;;;;;;;6.25;1.80;;;;;;;20.22;100.00;99436.09;4930071;29;20396;-74
2023/07/15 08:17:55;;;;;;;7.28;1.50;;;;;;;20.18;100.00;99430.44;4922992;29;20032;-74
2023/07/15 08:20:20;;;;;;;7.47;1.63;;;;;;;20.16;100.00;99427.19;4923034;29;20039;-74
2023/07/15 08:22:46;;;;;;;7.43;1.58;;;;;;;20.20;100.00;99433.69;4923040;29;20481;-74
2023/07/15 08:25:12;;;;;;;7.63;1.60;;;;;;;20.22;100.00;99431.28;4923133;29;20032;-74
2023/07/15 08:27:38;;;;;;;5.35;1.40;;;;;;;20.23;100.00;99432.91;4925277;29;20031;-74
2023/07/15 08:30:04;;;;;;;5.78;1.60;;;;;;;20.29;100.00;99425.72;4929740;29;20030;-74
2023/07/15 08:32:30;;;;;;;9.43;2.17;;;;;;;20.33;100.00;99428.59;4925694;29;20539;-74
2023/07/15 08:34:59;;;;;;;7.95;1.90;;;;;;;20.35;100.00;99417.72;4945327;29;20031;-75
2023/07/15 08:37:25;;;;;;;7.60;1.90;;;;;;;20.37;100.00;99425.81;4942347;29;20370;-74
2023/07/15 08:39:50;;;;;;;9.23;2.15;;;;;;;20.40;100.00;99422.22;4951478;29;20110;-70
2023/07/15 08:42:19;;;;;;;10.70;1.90;;;;;;;20.43;100.00;99422.25;4938469;29;20040;-69
2023/07/15 08:44:44;;;;;;;12.23;1.80;;;;;;;20.47;100.00;99430.75;4918621;29;20036;-70
2023/07/15 08:47:09;;;;;;;10.35;1.90;;;;;;;20.51;100.00;99426.78;4927387;28;20035;-70
2023/07/15 08:49:35;;;;;;;7.47;1.88;;;;;;;20.59;100.00;99443.78;4914478;29;20035;-70
2023/07/15 08:52:00;;;;;;;9.48;2.28;;;;;;;20.63;100.00;99442.63;4922297;29;20039;-70
2023/07/15 08:54:26;;;;;;;7.82;2.10;;;;;;;20.68;100.00;99435.81;4938502;29;20059;-69
2023/07/15 08:56:52;;;;;;;10.88;2.35;;;;;;;20.71;100.00;99438.69;4965480;28;20039;-70
2023/07/15 08:59:18;;;;;;;9.27;1.80;;;;;;;20.80;100.00;99446.00;4922724;29;20126;-70
2023/07/15 09:01:44;;;;;;;9.10;1.95;;;;;;;20.84;100.00;99441.19;4922628;29;20035;-70
2023/07/15 09:04:09;;;;;;;10.77;1.75;;;;;;;20.93;100.00;99436.84;4935965;28;20043;-70
2023/07/15 09:06:35;;;;;;;7.43;1.58;;;;;;;21.04;100.00;99441.78;4960190;28;20031;-70
2023/07/15 09:09:00;;;;;;;9.57;1.88;;;;;;;21.12;100.00;99427.34;4918326;29;20550;-70
2023/07/15 09:11:37;;;;;;;10.73;2.42;;;;;;;21.28;100.00;99434.69;4932644;28;20437;-70
2023/07/15 09:14:11;;;;;;;9.75;2.08;;;;;;;21.46;100.00;99432.84;4950143;28;20134;-70
2023/07/15 09:16:40;;;;;;;12.15;2.10;;;;;;;21.62;100.00;99435.38;4956037;29;20506;-70
2023/07/15 09:19:06;;;;;;;9.00;2.08;;;;;;;21.83;100.00;99448.78;4929189;28;20027;-70
2023/07/15 09:21:31;;;;;;;9.98;2.28;;;;;;;22.04;100.00;99440.41;4929181;29;20039;-70
2023/07/15 09:23:59;;;;;;;7.72;2.10;;;;;;;22.26;100.00;99435.69;4931071;28;20035;-70
2023/07/15 09:26:25;;;;;;;9.63;2.40;;;;;;;22.51;100.00;99441.41;4944622;29;20464;-70
2023/07/15 09:28:50;;;;;;;13.35;2.58;;;;;;;22.75;100.00;99445.47;4957422;28;20030;-70
2023/07/15 09:31:25;;;;;;;11.10;2.03;;;;;;;22.99;100.00;99423.28;4928846;29;20063;-70
2023/07/15 09:33:51;;;;;;;8.38;1.95;;;;;;;23.26;100.00;99440.63;4928749;29;20051;-70
2023/07/15 09:36:28;;;;;;;13.10;2.45;;;;;;;23.52;100.00;99441.44;4938972;28;20041;-70
2023/07/15 09:38:54;;;;;;;7.43;2.25;;;;;;;23.81;100.00;99443.00;4915120;29;20051;-70
2023/07/15 09:41:19;;;;;;;13.40;2.40;;;;;;;24.02;100.00;99456.31;4944411;29;20043;-70
2023/07/15 09:43:50;;;;;;;12.70;2.30;;;;;;;24.27;100.00;99453.34;4930910;28;20039;-70
2023/07/15 09:46:19;;;;;;;9.90;2.17;;;;;;;24.51;100.00;99442.28;4953907;28;20030;-70
2023/07/15 09:48:45;;;;;;;12.88;2.22;;;;;;;24.70;100.00;99447.44;4967806;28;20042;-70
2023/07/15 09:51:12;;;;;;;11.18;2.42;;;;;;;24.93;100.00;99443.22;4944421;29;20476;-70
2023/07/15 09:53:43;;;;;;;7.20;1.92;;;;;;;25.08;100.00;99464.63;4925447;29;20038;-74
2023/07/15 09:56:09;;;;;;;9.77;2.42;;;;;;;25.24;100.00;99463.28;4944530;28;20065;-74
2023/07/15 09:58:36;;;;;;;13.73;2.30;;;;;;;25.28;100.00;99461.25;4928675;29;20043;-74
2023/07/15 10:01:14;;;;;;;9.30;2.58;;;;;;;25.36;100.00;99477.00;4947276;28;20037;-74
2023/07/15 10:04:06;;;;;;;8.65;2.10;;;;;;;25.40;100.00;99486.28;4907942;29;20498;-74
2023/07/15 10:06:33;;;;;;;12.48;2.10;;;;;;;25.31;100.00;99483.13;4925475;28;20447;-74
2023/07/15 10:08:58;;;;;;;11.00;2.53;;;;;;;25.24;100.00;99494.53;4944059;29;20042;-74
2023/07/15 10:11:24;;;;;;;7.22;2.35;;;;;;;25.10;100.00;99499.09;4937914;28;20077;-74
2023/07/15 10:13:49;;;;;;;8.70;1.90;;;;;;;24.82;100.00;99496.44;4951442;29;20036;-74
2023/07/15 10:16:14;;;;;;;12.02;2.22;;;;;;;24.73;100.00;99500.56;4927911;29;20093;-74
2023/07/15 10:18:40;;;;;;;9.77;1.70;;;;;;;24.59;100.00;99509.16;4943878;29;20035;-74
2023/07/15 10:21:09;;;;;;;6.88;1.75;;;;;;;24.38;100.00;99521.41;4943753;29;20035;-74
2023/07/15 10:23:34;;;;;;;8.05;1.83;;;;;;;24.17;100.00;99524.31;4928602;28;20035;-75
2023/07/15 10:26:04;;;;;;;8.27;1.70;;;;;;;24.02;100.00;99512.22;4927549;29;20044;-75
2023/07/15 10:28:33;;;;;;;7.03;1.80;;;;;;;23.84;100.00;99512.25;4921351;29;20034;-75
2023/07/15 10:31:08;;;;;;;7.68;1.90;;;;;;;23.57;100.00;99524.00;4931299;28;20035;-74
2023/07/15 10:33:34;;;;;;;7.45;1.70;;;;;;;23.40;100.00;99517.16;4965338;28;20066;-74
2023/07/15 10:36:00;;;;;;;6.90;1.70;;;;;;;23.29;100.00;99515.50;4917010;29;20035;-74
2023/07/15 10:38:29;;;;;;;7.85;1.80;;;;;;;23.29;100.00;99522.00;4923537;28;20037;-74
2023/07/15 10:41:02;;;;;;;8.98;1.80;;;;;;;23.29;100.00;99513.50;4943118;28;20039;-74
2023/07/15 10:43:34;;;;;;;8.30;1.95;;;;;;;23.34;100.00;99518.75;4939899;28;20035;-74
2023/07/15 10:46:12;;;;;;;9.80;1.70;;;;;;;23.46;100.00;99523.22;4957011;28;20088;-74
2023/07/15 10:48:38;;;;;;;9.55;1.67;;;;;;;23.59;100.00;99520.75;4930766;28;20067;-74
2023/07/15 10:51:15;;;;;;;11.52;2.25;;;;;;;23.77;100.00;99512.28;4920307;29;20039;-74
2023/07/15 10:53:40;;;;;;;8.32;2.00;;;;;;;23.94;100.00;99513.44;4926529;29;20039;-74
2023/07/15 10:56:09;;;;;;;5.95;1.55;;;;;;;24.12;100.00;99521.91;4962569;28;20037;-74
2023/07/15 10:58:35;;;;;;;7.32;2.03;;;;;;;24.30;100.00;99534.00;4917497;29;20595;-74
2023/07/15 11:01:07;;;;;;;7.18;1.73;;;;;;;24.45;100.00;99526.25;4926042;28;20122;-74
2023/07/15 11:03:38;;;;;;;7.45;1.70;;;;;;;24.53;100.00;99539.19;4933449;29;20456;-74
2023/07/15 11:06:03;;;;;;;5.35;1.38;;;;;;;24.61;100.00;99532.25;4961637;28;20042;-74
2023/07/15 11:08:29;;;;;;;9.55;1.77;;;;;;;24.69;100.00;99539.53;4931542;29;20113;-74
2023/07/15 11:11:02;;;;;;;6.20;1.45;;;;;;;24.75;100.00;99537.06;4942492;28;20035;-74
2023/07/15 11:13:28;;;;;;;6.07;1.23;;;;;;;24.83;100.00;99532.97;4950825;29;20560;-74
2023/07/15 11:15:53;;;;;;;6.70;1.50;;;;;;;24.96;100.00;99536.94;4943074;28;20106;-74
2023/07/15 11:18:20;;;;;;;7.07;1.45;;;;;;;25.09;100.00;99540.09;4948208;29;20043;-74
2023/07/15 11:20:46;;;;;;;4.38;0.93;;;;;;;25.23;100.00;99538.41;4943322;28;20510;-74
2023/07/15 11:23:11;;;;;;;5.25;1.25;;;;;;;25.45;100.00;99527.66;4942688;29;20110;-74
2023/07/15 11:25:37;;;;;;;6.10;1.52;;;;;;;25.60;100.00;99512.91;4928406;28;20023;-74
2023/07/15 11:28:03;;;;;;;6.20;0.95;;;;;;;25.80;100.00;99513.13;4942075;29;20539;-74
2023/07/15 11:30:43;;;;;;;6.50;1.38;;;;;;;26.03;100.00;99538.09;4927874;28;20031;-74